Little Hocking, Ohio
Current Conditions -  °F | °C
As of 7:53 PM on Friday 31 Oct 2014 (Local Time) from KPKB Reporting Station
Light Rain Light Rain  
Wind Chill: 44°   Ceiling: 2300
Heat Index: 44°   Visibility: 4mi
Dew Point: 42°   Wind: 0mph
Humidity: 93%   Direction: NA
Pressure: 29.9"   Gusts: NA
Location:  39.26°N, 81.7°W
Report Text: KPKB 312353Z 00000KT 4SM -RA BR SCT007 SCT012 OVC023 07/06 A2990 RMK AO2 SLP128 P0005 60014 T00670056 10083 20067 52007
Loading
Personal Weather Stations






























Interactive Weather Map
Tropical Storm Tracking
New forecast layout! Learn more

10-Day Weather Forecast

Advertisements
Track Severe Weather on mobile